CET,Max TemperatureF,Mean TemperatureF,Min TemperatureF,Max Dew PointF,MeanDew PointF,Min DewpointF,Max Humidity, Mean Humidity, Min Humidity, Max Sea Level PressureIn, Mean Sea Level PressureIn, Min Sea Level PressureIn, Max VisibilityMiles, Mean VisibilityMiles, Min VisibilityMiles, Max Wind SpeedMPH, Mean Wind SpeedMPH, Max Gust SpeedMPH,PrecipitationIn, CloudCover, Events, WindDirDegrees
2012-10-1,81,70,60,66,58,-22,88,70,4,30.12,30.04,30.01,12,7,6,18,6,,0.02,3,Rain,307
2012-10-2,82,72,61,63,59,52,88,67,31,30.16,30.11,30.09,16,8,6,16,6,,0.00,2,,334
2012-10-3,82,70,57,64,58,50,88,68,26,30.16,30.12,30.09,16,8,6,14,4,,0.00,2,,342
2012-10-4,82,68,55,67,60,52,94,75,43,30.12,30.06,30.01,19,10,6,14,4,,0.00,1,,98
2012-10-5,81,70,58,70,63,54,94,79,54,30.12,30.08,30.06,16,9,6,18,7,,0.00,1,,120
2012-10-6,82,71,60,72,63,55,89,77,48,30.14,30.11,30.06,12,8,6,18,8,,0.00,1,,97
2012-10-7,82,72,63,72,65,59,89,77,55,30.09,30.06,30.01,7,6,4,14,5,,0.00,4,,341
2012-10-8,82,74,66,68,65,59,88,72,39,30.05,30.01,29.98,12,7,6,18,9,,0.00,2,,316
2012-10-9,86,76,65,70,66,60,94,75,35,30.00,29.94,29.89,16,7,6,13,6,,0.00,1,,324
2012-10-10,83,74,64,68,65,60,94,74,45,29.93,29.90,29.86,16,7,6,17,9,,0.00,1,,329
2012-10-11,88,76,63,70,64,59,88,71,33,29.92,29.85,29.80,12,7,6,14,4,,0.00,2,,336
2012-10-12,84,75,66,68,66,63,88,74,48,29.91,29.85,29.80,12,6,4,20,5,,0.00,3,Rain-Thunderstorm,341
2012-10-13,78,70,63,65,63,60,94,79,51,29.90,29.86,29.80,12,7,6,10,4,,0.08,2,Rain-Thunderstorm,340
2012-10-14,77,67,57,63,57,52,94,71,36,29.92,29.82,29.77,12,7,6,9,4,,0.00,1,,318
2012-10-15,83,70,57,63,58,52,94,75,27,29.86,29.73,29.65,12,7,5,22,5,,0.02,3,Rain-Thunderstorm,309
2012-10-16,75,64,52,58,53,46,88,69,40,30.12,30.00,29.86,12,8,6,16,6,,0.00,1,,349
2012-10-17,77,64,50,61,57,46,94,72,46,30.15,30.11,30.09,16,8,6,17,7,,0.00,1,,124
2012-10-18,82,68,54,70,59,52,94,74,36,30.10,30.03,29.98,12,7,6,20,8,,0.00,1,,99
2012-10-19,81,76,72,73,71,68,94,84,71,30.04,30.01,29.98,7,6,4,20,14,,0.00,4,Rain,133
2012-10-20,81,76,71,73,69,37,89,81,25,30.05,30.01,29.98,7,6,4,18,13,,0.00,3,,133
2012-10-21,81,76,71,73,70,66,89,83,74,29.98,29.96,29.92,9,6,4,16,11,,0.00,6,,129
2012-10-22,79,73,67,70,66,63,94,84,70,30.05,30.01,29.98,9,5,4,14,7,,0.00,4,Rain-Thunderstorm,338
2012-10-23,78,69,60,63,60,55,94,75,43,30.06,30.03,29.98,12,7,6,10,4,,0.00,2,,320
2012-10-24,75,66,56,63,58,52,94,81,53,30.01,29.93,29.89,12,7,6,13,3,,0.00,3,Rain-Thunderstorm,336
2012-10-25,78,66,53,64,57,49,94,78,49,29.93,29.89,29.83,12,7,6,14,5,,0.00,2,,111
2012-10-26,73,67,61,68,63,57,94,86,78,29.84,29.68,29.56,9,6,6,15,8,,0.00,3,Rain,140
2012-10-27,73,66,59,64,61,55,94,85,78,29.56,29.45,29.36,9,6,2,12,5,,0.75,4,Rain-Thunderstorm,215
2012-10-28,59,55,51,55,42,34,82,60,29,29.77,29.65,29.47,9,6,6,18,12,29,0.01,4,Rain,304
2012-10-29,61,55,49,48,45,37,88,69,39,29.95,29.86,29.77,11,6,5,17,11,28,0.01,4,Rain,320
2012-10-30,71,56,41,54,46,37,94,75,28,29.94,29.81,29.62,12,7,6,12,3,,0.00,2,,46
2012-10-31,68,60,53,63,57,52,94,82,62,29.60,29.41,29.30,10,6,2,23,7,38,0.16,5,Rain,208